createdAt,value
2019-04-14T00:00:29.466Z,1028.08
2019-04-14T00:01:39.079Z,1028.1
2019-04-14T00:02:49.125Z,1028.08
2019-04-14T00:03:58.701Z,1028.07
2019-04-14T00:05:08.286Z,1028.06
2019-04-14T00:06:18.055Z,1028.03
2019-04-14T00:07:27.636Z,1028.06
2019-04-14T00:08:37.181Z,1028.04
2019-04-14T00:09:47.471Z,1028.07
2019-04-14T00:10:57.258Z,1028
2019-04-14T00:12:07.812Z,1028.02
2019-04-14T00:13:19.564Z,1028.03
2019-04-14T00:14:29.349Z,1028.04
2019-04-14T00:15:42.530Z,1028.02
2019-04-14T00:16:59.623Z,1028.02
2019-04-14T00:18:09.703Z,1028.02
2019-04-14T00:19:19.527Z,1028.03
2019-04-14T00:20:29.314Z,1028.03
2019-04-14T00:21:38.953Z,1027.97
2019-04-14T00:22:48.994Z,1028.01
2019-04-14T00:23:58.875Z,1028
2019-04-14T00:25:08.638Z,1028.04
2019-04-14T00:26:18.359Z,1027.95
2019-04-14T00:27:28.121Z,1027.97
2019-04-14T00:28:38.261Z,1027.97
2019-04-14T00:29:47.919Z,1028
2019-04-14T00:30:57.674Z,1027.99
2019-04-14T00:32:07.371Z,1027.98
2019-04-14T00:33:17.015Z,1027.99
2019-04-14T00:34:26.776Z,1028
2019-04-14T00:35:36.403Z,1027.99
2019-04-14T00:36:45.930Z,1027.96
2019-04-14T00:37:55.522Z,1027.97
2019-04-14T00:39:09.590Z,1028
2019-04-14T00:40:19.299Z,1027.99
2019-04-14T00:41:43.559Z,1027.94
2019-04-14T00:43:09.183Z,1027.99
2019-04-14T00:44:18.896Z,1027.96
2019-04-14T00:45:36.904Z,1027.98
2019-04-14T00:47:05.002Z,1027.98
2019-04-14T00:48:17.472Z,1027.96
2019-04-14T00:49:31.119Z,1027.98
2019-04-14T00:50:40.890Z,1028
2019-04-14T00:51:50.706Z,1028.03
2019-04-14T00:53:03.103Z,1028.01
2019-04-14T00:54:13.207Z,1027.98
2019-04-14T00:55:22.628Z,1027.98
2019-04-14T00:56:32.250Z,1028
2019-04-14T00:57:41.959Z,1028
2019-04-14T00:58:51.812Z,1028
2019-04-14T01:00:01.761Z,1028.02
2019-04-14T01:01:11.222Z,1027.95
2019-04-14T01:02:21.067Z,1027.96
2019-04-14T01:03:30.921Z,1027.95
2019-04-14T01:04:42.629Z,1027.96
2019-04-14T01:05:52.598Z,1027.91
2019-04-14T01:07:02.185Z,1027.95
2019-04-14T01:08:11.981Z,1027.93
2019-04-14T01:09:30.493Z,1027.93
2019-04-14T01:10:41.092Z,1027.91
2019-04-14T01:11:50.955Z,1027.9
2019-04-14T01:13:00.630Z,1027.93
2019-04-14T01:14:16.907Z,1027.92
2019-04-14T01:15:26.750Z,1027.93
2019-04-14T01:17:09.166Z,1027.88
2019-04-14T01:18:18.937Z,1027.88
2019-04-14T01:19:28.706Z,1027.84
2019-04-14T01:20:38.508Z,1027.91
2019-04-14T01:21:48.100Z,1027.89
2019-04-14T01:22:57.416Z,1027.9
2019-04-14T01:24:07.498Z,1027.89
2019-04-14T01:25:17.111Z,1027.87
2019-04-14T01:26:26.734Z,1027.88
2019-04-14T01:27:36.344Z,1027.85
2019-04-14T01:28:46.142Z,1027.86
2019-04-14T01:29:55.908Z,1027.88
2019-04-14T01:31:05.596Z,1027.94
2019-04-14T01:32:15.405Z,1027.97
2019-04-14T01:33:25.019Z,1027.97
2019-04-14T01:34:34.738Z,1027.96
2019-04-14T01:35:44.334Z,1027.94
2019-04-14T01:36:54.025Z,1027.96
2019-04-14T01:38:03.812Z,1027.93
2019-04-14T01:39:15.442Z,1027.89
2019-04-14T01:40:24.957Z,1027.89
2019-04-14T01:41:34.667Z,1027.86
2019-04-14T01:42:44.184Z,1027.91
2019-04-14T01:43:53.933Z,1027.89
2019-04-14T01:45:03.603Z,1027.91
2019-04-14T01:46:18.329Z,1027.94
2019-04-14T01:47:39.931Z,1027.92
2019-04-14T01:48:49.605Z,1027.91
2019-04-14T01:49:59.471Z,1027.93
2019-04-14T01:51:09.223Z,1027.98
2019-04-14T01:52:18.988Z,1027.97
2019-04-14T01:53:29.240Z,1027.99
2019-04-14T01:54:38.839Z,1027.99
2019-04-14T01:55:50.490Z,1027.98
2019-04-14T01:57:00.220Z,1028
2019-04-14T01:58:10.014Z,1028.03
2019-04-14T01:59:19.821Z,1028.01
2019-04-14T02:00:29.231Z,1028.01
2019-04-14T02:01:38.923Z,1027.98
2019-04-14T02:02:50.889Z,1028
2019-04-14T02:04:00.614Z,1028.04
2019-04-14T02:05:10.396Z,1028.02
2019-04-14T02:06:20.154Z,1028.06
2019-04-14T02:07:29.729Z,1028.01
2019-04-14T02:08:39.370Z,1028.01
2019-04-14T02:09:48.903Z,1028.03
2019-04-14T02:10:58.694Z,1028.01
2019-04-14T02:12:08.514Z,1028.07
2019-04-14T02:13:18.150Z,1027.98
2019-04-14T02:14:27.745Z,1028.05
2019-04-14T02:15:37.382Z,1028.01
2019-04-14T02:16:50.748Z,1028.06
2019-04-14T02:18:12.108Z,1028.06
2019-04-14T02:19:24.163Z,1028.04
2019-04-14T02:20:33.877Z,1028.04
2019-04-14T02:21:45.604Z,1028.05
2019-04-14T02:22:57.319Z,1028.07
2019-04-14T02:24:07.086Z,1028.07
2019-04-14T02:25:18.834Z,1028.06
2019-04-14T02:26:28.657Z,1028.1
2019-04-14T02:27:40.683Z,1028.09
2019-04-14T02:28:50.393Z,1028.1
2019-04-14T02:30:00.473Z,1028.09
2019-04-14T02:31:59.447Z,1028.08
2019-04-14T02:35:54.809Z,1028.07
2019-04-14T02:40:07.472Z,1028.09
2019-04-14T02:44:11.803Z,1028.1
2019-04-14T02:48:25.208Z,1028.08
2019-04-14T02:52:19.429Z,1028.12
2019-04-14T02:56:15.419Z,1028.13
2019-04-14T03:00:16.446Z,1028.16
2019-04-14T03:04:56.041Z,1028.17
2019-04-14T03:08:58.738Z,1028.15
2019-04-14T03:16:51.670Z,1028.24
2019-04-14T03:25:05.553Z,1028.22
2019-04-14T03:29:05.122Z,1028.26
2019-04-14T03:43:45.826Z,1028.33
2019-04-14T03:47:59.629Z,1028.33
2019-04-14T03:55:31.443Z,1028.23
2019-04-14T03:57:14.907Z,1028.2
2019-04-14T03:58:24.619Z,1028.22
2019-04-14T03:59:34.556Z,1028.21
2019-04-14T04:00:44.312Z,1028.21
2019-04-14T04:01:56.566Z,1028.23
2019-04-14T04:03:06.371Z,1028.22
2019-04-14T04:04:16.144Z,1028.24
2019-04-14T04:05:25.959Z,1028.22
2019-04-14T04:06:35.629Z,1028.26
2019-04-14T04:07:45.338Z,1028.26
2019-04-14T04:08:55.225Z,1028.26
2019-04-14T04:10:05.089Z,1028.27
2019-04-14T04:11:15.032Z,1028.31
2019-04-14T04:12:24.676Z,1028.27
2019-04-14T04:13:34.514Z,1028.28
2019-04-14T04:14:44.176Z,1028.28
2019-04-14T04:15:54.018Z,1028.29
2019-04-14T04:17:03.640Z,1028.32
2019-04-14T04:18:13.470Z,1028.28
2019-04-14T04:19:22.999Z,1028.28
2019-04-14T04:20:32.815Z,1028.29
2019-04-14T04:21:42.302Z,1028.27
2019-04-14T04:22:52.235Z,1028.27
2019-04-14T04:24:02.129Z,1028.3
2019-04-14T04:25:11.570Z,1028.32
2019-04-14T04:26:21.237Z,1028.34
2019-04-14T04:27:30.833Z,1028.3
2019-04-14T04:28:40.627Z,1028.36
2019-04-14T04:29:50.544Z,1028.36
2019-04-14T04:31:00.241Z,1028.36
2019-04-14T04:32:09.943Z,1028.33
2019-04-14T04:33:19.859Z,1028.34
2019-04-14T04:34:29.475Z,1028.37
2019-04-14T04:35:39.287Z,1028.34
2019-04-14T04:36:48.744Z,1028.34
2019-04-14T04:37:58.484Z,1028.37
2019-04-14T04:39:08.257Z,1028.35
2019-04-14T04:40:17.967Z,1028.36
2019-04-14T04:41:27.660Z,1028.38
2019-04-14T04:42:37.241Z,1028.42
2019-04-14T04:43:47.316Z,1028.4
2019-04-14T04:44:57.478Z,1028.37
2019-04-14T04:46:06.941Z,1028.4
2019-04-14T04:47:16.630Z,1028.45
2019-04-14T04:48:26.371Z,1028.45
2019-04-14T04:49:36.141Z,1028.43
2019-04-14T04:50:45.431Z,1028.42
2019-04-14T04:51:55.110Z,1028.46
2019-04-14T04:53:04.919Z,1028.49
2019-04-14T04:54:14.673Z,1028.48
2019-04-14T04:55:24.205Z,1028.52
2019-04-14T04:56:34.123Z,1028.52
2019-04-14T04:57:43.798Z,1028.5
2019-04-14T04:58:52.808Z,1028.5
2019-04-14T05:00:03.481Z,1028.56
2019-04-14T05:01:14.483Z,1028.57
2019-04-14T05:02:24.459Z,1028.58
2019-04-14T05:03:34.066Z,1028.56
2019-04-14T05:04:43.811Z,1028.55
2019-04-14T05:05:53.548Z,1028.54
2019-04-14T05:07:03.611Z,1028.59
2019-04-14T05:08:13.106Z,1028.55
2019-04-14T05:09:23.059Z,1028.59
2019-04-14T05:10:32.828Z,1028.57
2019-04-14T05:11:42.624Z,1028.61
2019-04-14T05:12:58.599Z,1028.64
2019-04-14T05:14:08.716Z,1028.66
2019-04-14T05:15:18.333Z,1028.67
2019-04-14T05:16:28.126Z,1028.64
2019-04-14T05:17:37.338Z,1028.62
2019-04-14T05:18:48.670Z,1028.64
2019-04-14T05:20:13.695Z,1028.6
2019-04-14T05:21:23.477Z,1028.6
2019-04-14T05:22:33.264Z,1028.56
2019-04-14T05:23:43.128Z,1028.56
2019-04-14T05:24:52.864Z,1028.61
2019-04-14T05:26:02.720Z,1028.57
2019-04-14T05:27:12.397Z,1028.56
2019-04-14T05:28:22.045Z,1028.58
2019-04-14T05:29:31.825Z,1028.61
2019-04-14T05:30:41.524Z,1028.61
2019-04-14T05:31:51.129Z,1028.62
2019-04-14T05:33:00.876Z,1028.63
2019-04-14T05:34:10.756Z,1028.63
2019-04-14T05:35:20.562Z,1028.63
2019-04-14T05:36:30.284Z,1028.64
2019-04-14T05:37:40.099Z,1028.62
2019-04-14T05:38:49.557Z,1028.62
2019-04-14T05:39:59.352Z,1028.64
2019-04-14T05:41:09.095Z,1028.65
2019-04-14T05:42:21.921Z,1028.67
2019-04-14T05:43:43.239Z,1028.66
2019-04-14T05:45:08.711Z,1028.71
2019-04-14T05:46:18.531Z,1028.69
2019-04-14T05:47:28.317Z,1028.71
2019-04-14T05:48:38.063Z,1028.75
2019-04-14T05:49:51.250Z,1028.71
2019-04-14T05:51:06.391Z,1028.75
2019-04-14T05:52:19.148Z,1028.79
2019-04-14T05:53:28.344Z,1028.8
2019-04-14T05:54:38.242Z,1028.82
2019-04-14T05:55:48.174Z,1028.84
2019-04-14T05:56:57.941Z,1028.88
2019-04-14T05:58:07.922Z,1028.9
2019-04-14T05:59:17.706Z,1028.87
2019-04-14T06:00:27.755Z,1028.93
2019-04-14T06:01:37.305Z,1028.94
2019-04-14T06:02:46.955Z,1028.97
2019-04-14T06:03:58.147Z,1028.96
2019-04-14T06:05:09.054Z,1028.97
2019-04-14T06:06:21.464Z,1028.98
2019-04-14T06:07:30.958Z,1028.98
2019-04-14T06:08:40.127Z,1029.01
2019-04-14T06:09:49.018Z,1029.03
2019-04-14T06:10:58.162Z,1028.99
2019-04-14T06:12:07.044Z,1029.01
2019-04-14T06:13:16.467Z,1029.01
2019-04-14T06:14:25.617Z,1029.01
2019-04-14T06:15:34.757Z,1029.03
2019-04-14T06:16:43.633Z,1029.05
2019-04-14T06:17:52.512Z,1029.03
2019-04-14T06:19:01.385Z,1029.05
2019-04-14T06:20:10.545Z,1029.01
2019-04-14T06:21:19.686Z,1029.01
2019-04-14T06:22:29.099Z,1028.98
2019-04-14T06:23:37.972Z,1028.95
2019-04-14T06:24:47.118Z,1028.97
2019-04-14T06:25:56.538Z,1028.94
2019-04-14T06:27:05.473Z,1029.01
2019-04-14T06:28:14.614Z,1028.97
2019-04-14T06:29:23.833Z,1028.98
2019-04-14T06:30:32.702Z,1028.99
2019-04-14T06:31:41.614Z,1028.96
2019-04-14T06:32:50.486Z,1028.98
2019-04-14T06:33:59.632Z,1028.96
2019-04-14T06:35:09.074Z,1029
2019-04-14T06:36:17.974Z,1029
2019-04-14T06:37:27.121Z,1029
2019-04-14T06:38:36.270Z,1029.04
2019-04-14T06:39:45.419Z,1029
2019-04-14T06:40:54.281Z,1029.03
2019-04-14T06:42:03.427Z,1029.02
2019-04-14T06:43:12.575Z,1029.01
2019-04-14T06:44:21.989Z,1029.02
2019-04-14T06:45:30.874Z,1029.05
2019-04-14T06:46:39.795Z,1029.07
2019-04-14T06:47:48.948Z,1029.05
2019-04-14T06:48:57.871Z,1029.07
2019-04-14T06:50:07.012Z,1029.02
2019-04-14T06:51:16.158Z,1029.04
2019-04-14T06:52:25.614Z,1029.01
2019-04-14T06:53:34.828Z,1028.99
2019-04-14T06:54:44.517Z,1029
2019-04-14T06:55:55.027Z,1029.04
2019-04-14T06:57:04.583Z,1028.97
2019-04-14T06:58:14.004Z,1029.01
2019-04-14T06:59:23.150Z,1029.03
2019-04-14T07:00:32.023Z,1029.01
2019-04-14T07:01:41.172Z,1029.02
2019-04-14T07:02:50.086Z,1028.99
2019-04-14T07:03:59.010Z,1029.04
2019-04-14T07:05:08.154Z,1029.05
2019-04-14T07:06:17.839Z,1028.98
2019-04-14T07:07:26.732Z,1029.01
2019-04-14T07:08:35.618Z,1029.01
2019-04-14T07:09:44.797Z,1029.01
2019-04-14T07:10:53.677Z,1029.05
2019-04-14T07:12:02.630Z,1029.07
2019-04-14T07:13:13.944Z,1029.07
2019-04-14T07:14:31.408Z,1029.03
2019-04-14T07:15:41.559Z,1029.07
2019-04-14T07:16:51.464Z,1029.01
2019-04-14T07:18:00.707Z,1029.05
2019-04-14T07:19:12.535Z,1029.03
2019-04-14T07:20:21.950Z,1029.01
2019-04-14T07:21:31.678Z,1029
2019-04-14T07:22:40.821Z,1029.02
2019-04-14T07:23:50.235Z,1029.02
2019-04-14T07:24:59.109Z,1029.03
2019-04-14T07:26:08.543Z,1029
2019-04-14T07:27:17.535Z,1029.01
2019-04-14T07:28:27.546Z,1029.04
2019-04-14T07:29:36.952Z,1029.04
2019-04-14T07:30:46.094Z,1029.03
2019-04-14T07:31:55.249Z,1029.02
2019-04-14T07:33:04.507Z,1029.06
2019-04-14T07:34:13.382Z,1029.04
2019-04-14T07:35:22.260Z,1029.09
2019-04-14T07:36:31.731Z,1029.1
2019-04-14T07:37:40.604Z,1029.13
2019-04-14T07:38:49.803Z,1029.13
2019-04-14T07:39:59.229Z,1029.13
2019-04-14T07:41:08.378Z,1029.12
2019-04-14T07:42:17.525Z,1029.12
2019-04-14T07:43:26.681Z,1029.19
2019-04-14T07:44:36.088Z,1029.16
2019-04-14T07:45:44.958Z,1029.21
2019-04-14T07:46:53.829Z,1029.18
2019-04-14T07:48:02.723Z,1029.19
2019-04-14T07:49:11.602Z,1029.26
2019-04-14T07:50:20.525Z,1029.21
2019-04-14T07:51:29.670Z,1029.22
2019-04-14T07:52:38.544Z,1029.24
2019-04-14T07:53:47.953Z,1029.22
2019-04-14T07:54:56.822Z,1029.21
2019-04-14T07:56:06.018Z,1029.19
2019-04-14T07:57:15.507Z,1029.18
2019-04-14T07:58:24.386Z,1029.2
2019-04-14T07:59:33.795Z,1029.16
2019-04-14T08:00:43.209Z,1029.17
2019-04-14T08:01:52.151Z,1029.19
2019-04-14T08:03:01.372Z,1029.21
2019-04-14T08:04:10.528Z,1029.21
2019-04-14T08:05:19.676Z,1029.19
2019-04-14T08:06:28.816Z,1029.21
2019-04-14T08:07:40.988Z,1029.23
2019-04-14T08:08:50.426Z,1029.23
2019-04-14T08:09:59.336Z,1029.22
2019-04-14T08:11:08.234Z,1029.24
2019-04-14T08:12:17.114Z,1029.23
2019-04-14T08:13:26.260Z,1029.26
2019-04-14T08:14:35.412Z,1029.24
2019-04-14T08:15:44.613Z,1029.23
2019-04-14T08:16:53.754Z,1029.21
2019-04-14T08:18:03.169Z,1029.23
2019-04-14T08:19:12.102Z,1029.23
2019-04-14T08:20:27.534Z,1029.25
2019-04-14T08:21:36.788Z,1029.26
2019-04-14T08:22:45.666Z,1029.2
2019-04-14T08:23:54.810Z,1029.26
2019-04-14T08:25:03.971Z,1029.25
2019-04-14T08:26:13.396Z,1029.23
2019-04-14T08:27:22.806Z,1029.25
2019-04-14T08:28:31.684Z,1029.26
2019-04-14T08:29:40.564Z,1029.23
2019-04-14T08:30:49.769Z,1029.25
2019-04-14T08:31:58.646Z,1029.23
2019-04-14T08:33:07.525Z,1029.25
2019-04-14T08:34:16.697Z,1029.29
2019-04-14T08:35:25.572Z,1029.23
2019-04-14T08:36:34.459Z,1029.19
2019-04-14T08:37:43.656Z,1029.21
2019-04-14T08:38:52.542Z,1029.16
2019-04-14T08:40:02.230Z,1029.19
2019-04-14T08:41:11.173Z,1029.17
2019-04-14T08:42:20.391Z,1029.23
2019-04-14T08:43:29.264Z,1029.21
2019-04-14T08:44:39.504Z,1029.24
2019-04-14T08:45:48.893Z,1029.23
2019-04-14T08:46:57.760Z,1029.27
2019-04-14T08:48:06.688Z,1029.21
2019-04-14T08:49:15.832Z,1029.22
2019-04-14T08:50:24.712Z,1029.21
2019-04-14T08:51:45.674Z,1029.21
2019-04-14T08:52:54.835Z,1029.2
2019-04-14T08:54:03.754Z,1029.21
2019-04-14T08:55:12.914Z,1029.19
2019-04-14T08:56:21.802Z,1029.19
2019-04-14T08:57:31.210Z,1029.21
2019-04-14T08:58:40.620Z,1029.27
2019-04-14T08:59:49.824Z,1029.27
2019-04-14T09:00:58.967Z,1029.28
2019-04-14T09:02:08.122Z,1029.31
2019-04-14T09:03:17.264Z,1029.31
2019-04-14T09:04:26.501Z,1029.29
2019-04-14T09:05:35.753Z,1029.32
2019-04-14T09:06:45.160Z,1029.29
2019-04-14T09:07:54.042Z,1029.26
2019-04-14T09:09:03.465Z,1029.29
2019-04-14T09:10:14.168Z,1029.33
2019-04-14T09:11:23.051Z,1029.28
2019-04-14T09:12:31.923Z,1029.34
2019-04-14T09:13:41.062Z,1029.3
2019-04-14T09:14:56.608Z,1029.26
2019-04-14T09:16:06.066Z,1029.28
2019-04-14T09:17:14.987Z,1029.29
2019-04-14T09:18:24.133Z,1029.27
2019-04-14T09:19:33.278Z,1029.32
2019-04-14T09:20:52.002Z,1029.31
2019-04-14T09:22:01.967Z,1029.28
2019-04-14T09:23:11.163Z,1029.31
2019-04-14T09:24:20.035Z,1029.29
2019-04-14T09:25:29.185Z,1029.34
2019-04-14T09:26:38.324Z,1029.34
2019-04-14T09:27:47.468Z,1029.36
2019-04-14T09:28:56.388Z,1029.38
2019-04-14T09:30:05.269Z,1029.39
2019-04-14T09:31:14.699Z,1029.4
2019-04-14T09:32:24.149Z,1029.41
2019-04-14T09:33:33.033Z,1029.48
2019-04-14T09:34:42.249Z,1029.42
2019-04-14T09:35:51.657Z,1029.43
2019-04-14T09:37:00.822Z,1029.43
2019-04-14T09:38:12.436Z,1029.4
2019-04-14T09:39:21.596Z,1029.38
2019-04-14T09:40:30.755Z,1029.39
2019-04-14T09:41:39.910Z,1029.39
2019-04-14T09:42:48.799Z,1029.39
2019-04-14T09:44:00.085Z,1029.36
2019-04-14T09:45:09.245Z,1029.4
2019-04-14T09:46:18.194Z,1029.36
2019-04-14T09:47:27.675Z,1029.4
2019-04-14T09:48:37.125Z,1029.37
2019-04-14T09:49:47.519Z,1029.34
2019-04-14T09:51:04.474Z,1029.34
2019-04-14T09:52:13.662Z,1029.37
2019-04-14T09:53:22.803Z,1029.36
2019-04-14T09:54:31.681Z,1029.34
2019-04-14T09:55:41.098Z,1029.37
2019-04-14T09:56:50.779Z,1029.37
2019-04-14T09:58:00.241Z,1029.37
2019-04-14T09:59:09.124Z,1029.44
2019-04-14T10:00:18.459Z,1029.44
2019-04-14T10:01:27.643Z,1029.48
2019-04-14T10:02:36.790Z,1029.41
2019-04-14T10:03:46.216Z,1029.4
2019-04-14T10:04:55.897Z,1029.4
2019-04-14T10:06:05.533Z,1029.46
2019-04-14T10:07:15.022Z,1029.47
2019-04-14T10:08:24.138Z,1029.42
2019-04-14T10:09:33.303Z,1029.48
2019-04-14T10:10:43.171Z,1029.45
2019-04-14T10:11:54.734Z,1029.46
2019-04-14T10:13:05.057Z,1029.46
2019-04-14T10:14:14.215Z,1029.46
2019-04-14T10:15:23.399Z,1029.44
2019-04-14T10:16:32.274Z,1029.44
2019-04-14T10:17:41.689Z,1029.44
2019-04-14T10:18:50.839Z,1029.45
2019-04-14T10:19:59.712Z,1029.45
2019-04-14T10:21:17.082Z,1029.4
2019-04-14T10:22:33.634Z,1029.46
2019-04-14T10:23:42.946Z,1029.4
2019-04-14T10:24:51.814Z,1029.45
2019-04-14T10:26:01.505Z,1029.43
2019-04-14T10:27:10.378Z,1029.43
2019-04-14T10:28:19.521Z,1029.38
2019-04-14T10:29:28.662Z,1029.4
2019-04-14T10:30:37.827Z,1029.4
2019-04-14T10:31:47.073Z,1029.42
2019-04-14T10:32:56.213Z,1029.45
2019-04-14T10:34:05.096Z,1029.47
2019-04-14T10:35:17.207Z,1029.42
2019-04-14T10:36:26.093Z,1029.46
2019-04-14T10:37:35.559Z,1029.49
2019-04-14T10:38:44.985Z,1029.46
2019-04-14T10:39:54.132Z,1029.46
2019-04-14T10:41:06.252Z,1029.49
2019-04-14T10:42:15.402Z,1029.55
2019-04-14T10:43:24.549Z,1029.54
2019-04-14T10:44:33.425Z,1029.51
2019-04-14T10:45:42.904Z,1029.49
2019-04-14T10:46:52.102Z,1029.48
2019-04-14T10:48:01.244Z,1029.52
2019-04-14T10:49:10.133Z,1029.54
2019-04-14T10:50:30.126Z,1029.48
2019-04-14T10:51:40.018Z,1029.52
2019-04-14T10:52:48.909Z,1029.51
2019-04-14T10:53:57.782Z,1029.5
2019-04-14T10:55:06.739Z,1029.55
2019-04-14T10:56:15.890Z,1029.5
2019-04-14T10:57:25.305Z,1029.5
2019-04-14T10:58:34.214Z,1029.55
2019-04-14T10:59:43.089Z,1029.55
2019-04-14T11:00:52.286Z,1029.57
2019-04-14T11:02:01.162Z,1029.56
2019-04-14T11:03:10.588Z,1029.6
2019-04-14T11:04:19.733Z,1029.58
2019-04-14T11:05:28.878Z,1029.56
2019-04-14T11:06:37.748Z,1029.58
2019-04-14T11:07:46.887Z,1029.59
2019-04-14T11:08:56.032Z,1029.63
2019-04-14T11:10:05.450Z,1029.67
2019-04-14T11:11:14.596Z,1029.63
2019-04-14T11:12:24.011Z,1029.67
2019-04-14T11:13:33.176Z,1029.67
2019-04-14T11:14:42.051Z,1029.68
2019-04-14T11:15:50.935Z,1029.7
2019-04-14T11:17:00.357Z,1029.71
2019-04-14T11:18:09.496Z,1029.64
2019-04-14T11:19:18.375Z,1029.67
2019-04-14T11:20:27.289Z,1029.61
2019-04-14T11:21:42.549Z,1029.61
2019-04-14T11:23:02.660Z,1029.59
2019-04-14T11:24:12.184Z,1029.64
2019-04-14T11:25:21.063Z,1029.57
2019-04-14T11:26:30.210Z,1029.59
2019-04-14T11:27:39.093Z,1029.64
2019-04-14T11:28:48.297Z,1029.58
2019-04-14T11:29:57.216Z,1029.57
2019-04-14T11:31:06.371Z,1029.56
2019-04-14T11:32:15.255Z,1029.6
2019-04-14T11:33:24.391Z,1029.63
2019-04-14T11:34:34.068Z,1029.6
2019-04-14T11:35:42.955Z,1029.62
2019-04-14T11:36:52.123Z,1029.58
2019-04-14T11:38:01.298Z,1029.66
2019-04-14T11:39:10.171Z,1029.62
2019-04-14T11:40:19.054Z,1029.63
2019-04-14T11:41:27.951Z,1029.62
2019-04-14T11:42:37.117Z,1029.63
2019-04-14T11:43:58.808Z,1029.61
2019-04-14T11:45:08.578Z,1029.64
2019-04-14T11:46:17.494Z,1029.62
2019-04-14T11:47:26.637Z,1029.58
2019-04-14T11:48:35.782Z,1029.63
2019-04-14T11:49:44.667Z,1029.64
2019-04-14T11:50:53.548Z,1029.6
2019-04-14T11:52:02.770Z,1029.65
2019-04-14T11:53:11.919Z,1029.64
2019-04-14T11:54:20.813Z,1029.68
2019-04-14T11:55:29.967Z,1029.65
2019-04-14T11:56:38.831Z,1029.67
2019-04-14T11:57:48.037Z,1029.63
2019-04-14T11:58:56.948Z,1029.67
2019-04-14T12:00:06.121Z,1029.7
2019-04-14T12:01:15.009Z,1029.71
2019-04-14T12:02:24.168Z,1029.68
2019-04-14T12:03:33.394Z,1029.66
2019-04-14T12:04:42.631Z,1029.67
2019-04-14T12:05:51.579Z,1029.69
2019-04-14T12:07:00.995Z,1029.67
2019-04-14T12:08:10.424Z,1029.67
2019-04-14T12:09:19.615Z,1029.65
2019-04-14T12:10:28.500Z,1029.7
2019-04-14T12:11:37.372Z,1029.64
2019-04-14T12:12:46.256Z,1029.64
2019-04-14T12:13:55.161Z,1029.7
2019-04-14T12:15:07.503Z,1029.63
2019-04-14T12:16:23.276Z,1029.62
2019-04-14T12:17:32.155Z,1029.6
2019-04-14T12:18:41.303Z,1029.64
2019-04-14T12:19:50.724Z,1029.68
2019-04-14T12:21:00.196Z,1029.67
2019-04-14T12:22:09.602Z,1029.67
2019-04-14T12:23:18.747Z,1029.68
2019-04-14T12:24:27.636Z,1029.63
2019-04-14T12:25:36.775Z,1029.66
2019-04-14T12:26:45.646Z,1029.72
2019-04-14T12:27:55.724Z,1029.75
2019-04-14T12:29:06.294Z,1029.67
2019-04-14T12:30:18.029Z,1029.69
2019-04-14T12:31:28.507Z,1029.7
2019-04-14T12:32:38.295Z,1029.77
2019-04-14T12:33:47.473Z,1029.76
2019-04-14T12:34:56.618Z,1029.72
2019-04-14T12:36:05.502Z,1029.7
2019-04-14T12:37:14.381Z,1029.7
2019-04-14T12:38:23.256Z,1029.74
2019-04-14T12:39:32.392Z,1029.74
2019-04-14T12:40:41.264Z,1029.74
2019-04-14T12:41:52.708Z,1029.7
2019-04-14T12:43:01.584Z,1029.7
2019-04-14T12:44:10.510Z,1029.74
2019-04-14T12:45:19.648Z,1029.69
2019-04-14T12:46:28.800Z,1029.69
2019-04-14T12:47:40.161Z,1029.7
2019-04-14T12:48:49.394Z,1029.73
2019-04-14T12:49:58.591Z,1029.73
2019-04-14T12:51:07.737Z,1029.71
2019-04-14T12:52:21.254Z,1029.74
2019-04-14T12:53:31.009Z,1029.7
2019-04-14T12:54:39.953Z,1029.81
2019-04-14T12:55:48.871Z,1029.74
2019-04-14T12:56:57.748Z,1029.7
2019-04-14T12:58:06.669Z,1029.74
2019-04-14T12:59:18.041Z,1029.69
2019-04-14T13:00:30.260Z,1029.71
2019-04-14T13:01:39.454Z,1029.7
2019-04-14T13:02:48.592Z,1029.68
2019-04-14T13:03:57.752Z,1029.64
2019-04-14T13:05:06.911Z,1029.63
2019-04-14T13:06:16.050Z,1029.65
2019-04-14T13:07:25.245Z,1029.61
2019-04-14T13:08:37.072Z,1029.61
2019-04-14T13:09:46.220Z,1029.59
2019-04-14T13:10:55.369Z,1029.6
2019-04-14T13:12:04.246Z,1029.67
2019-04-14T13:13:15.619Z,1029.64
2019-04-14T13:14:25.299Z,1029.64
2019-04-14T13:15:34.445Z,1029.65
2019-04-14T13:16:44.388Z,1029.68
2019-04-14T13:17:53.260Z,1029.64
2019-04-14T13:19:02.450Z,1029.6
2019-04-14T13:20:11.608Z,1029.64
2019-04-14T13:21:20.512Z,1029.64
2019-04-14T13:22:33.975Z,1029.57
2019-04-14T13:23:43.255Z,1029.61
2019-04-14T13:24:52.712Z,1029.59
2019-04-14T13:26:01.587Z,1029.55
2019-04-14T13:27:11.046Z,1029.54
2019-04-14T13:28:19.943Z,1029.51
2019-04-14T13:29:29.083Z,1029.53
2019-04-14T13:30:38.224Z,1029.58
2019-04-14T13:31:47.651Z,1029.55
2019-04-14T13:32:56.808Z,1029.56
2019-04-14T13:34:05.684Z,1029.55
2019-04-14T13:35:14.572Z,1029.57
2019-04-14T13:36:23.488Z,1029.6
2019-04-14T13:37:32.642Z,1029.59
2019-04-14T13:38:41.520Z,1029.6
2019-04-14T13:39:50.399Z,1029.62
2019-04-14T13:40:59.563Z,1029.59
2019-04-14T13:42:08.491Z,1029.57
2019-04-14T13:43:17.637Z,1029.58
2019-04-14T13:44:26.534Z,1029.56
2019-04-14T13:45:35.409Z,1029.56
2019-04-14T13:46:44.283Z,1029.58
2019-04-14T13:47:53.687Z,1029.51
2019-04-14T13:49:03.106Z,1029.53
2019-04-14T13:50:12.245Z,1029.49
2019-04-14T13:51:21.387Z,1029.52
2019-04-14T13:52:31.236Z,1029.46
2019-04-14T13:53:53.281Z,1029.51
2019-04-14T13:55:02.423Z,1029.5
2019-04-14T13:56:11.560Z,1029.51
2019-04-14T13:57:20.709Z,1029.5
2019-04-14T13:58:29.901Z,1029.47
2019-04-14T13:59:43.893Z,1029.44
2019-04-14T14:00:53.047Z,1029.39
2019-04-14T14:02:02.248Z,1029.45
2019-04-14T14:03:11.130Z,1029.48
2019-04-14T14:04:20.013Z,1029.36
2019-04-14T14:05:28.943Z,1029.4
2019-04-14T14:06:38.099Z,1029.4
2019-04-14T14:07:47.517Z,1029.39
2019-04-14T14:08:56.692Z,1029.39
2019-04-14T14:10:05.842Z,1029.37
2019-04-14T14:11:15.035Z,1029.39
2019-04-14T14:12:24.197Z,1029.4
2019-04-14T14:13:33.335Z,1029.4
2019-04-14T14:14:42.210Z,1029.42
2019-04-14T14:15:51.358Z,1029.38
2019-04-14T14:17:00.245Z,1029.41
2019-04-14T14:18:09.129Z,1029.38
2019-04-14T14:19:18.275Z,1029.41
2019-04-14T14:20:27.977Z,1029.38
2019-04-14T14:21:37.122Z,1029.37
2019-04-14T14:22:58.253Z,1029.33
2019-04-14T14:24:08.073Z,1029.39
2019-04-14T14:25:17.561Z,1029.45
2019-04-14T14:26:26.432Z,1029.41
2019-04-14T14:27:35.583Z,1029.45
2019-04-14T14:28:44.730Z,1029.44
2019-04-14T14:29:53.874Z,1029.42
2019-04-14T14:31:02.757Z,1029.41
2019-04-14T14:32:11.904Z,1029.39
2019-04-14T14:33:21.061Z,1029.38
2019-04-14T14:34:29.974Z,1029.43
2019-04-14T14:35:38.855Z,1029.4
2019-04-14T14:36:47.741Z,1029.4
2019-04-14T14:37:56.889Z,1029.45
2019-04-14T14:39:05.765Z,1029.36
2019-04-14T14:40:14.692Z,1029.36
2019-04-14T14:41:24.378Z,1029.35
2019-04-14T14:42:33.297Z,1029.35
2019-04-14T14:43:42.186Z,1029.42
2019-04-14T14:44:51.334Z,1029.43
2019-04-14T14:46:00.800Z,1029.37
2019-04-14T14:47:09.950Z,1029.44
2019-04-14T14:48:19.110Z,1029.45
2019-04-14T14:49:27.983Z,1029.42
2019-04-14T14:50:36.862Z,1029.42
2019-04-14T14:51:45.740Z,1029.41
2019-04-14T14:52:54.897Z,1029.4
2019-04-14T14:54:16.405Z,1029.41
2019-04-14T14:55:25.331Z,1029.4
2019-04-14T14:56:34.222Z,1029.43
2019-04-14T14:57:43.090Z,1029.45
2019-04-14T14:58:51.970Z,1029.4
2019-04-14T15:00:01.400Z,1029.45
2019-04-14T15:01:10.274Z,1029.43
2019-04-14T15:02:19.483Z,1029.43
2019-04-14T15:03:28.890Z,1029.42
2019-04-14T15:04:38.038Z,1029.41
2019-04-14T15:05:46.907Z,1029.43
2019-04-14T15:06:56.057Z,1029.48
2019-04-14T15:08:05.204Z,1029.45
2019-04-14T15:09:14.349Z,1029.48
2019-04-14T15:10:23.232Z,1029.49
2019-04-14T15:11:32.653Z,1029.48
2019-04-14T15:12:42.337Z,1029.49
2019-04-14T15:13:51.215Z,1029.49
2019-04-14T15:15:00.080Z,1029.46
2019-04-14T15:16:09.221Z,1029.51
2019-04-14T15:17:18.365Z,1029.5
2019-04-14T15:18:27.851Z,1029.45